createdAt,value
2019-05-01T00:00:37.239Z,97101.61
2019-05-01T00:02:29.654Z,97097.94
2019-05-01T00:04:23.556Z,97097.04
2019-05-01T00:06:00.231Z,97094.95
2019-05-01T00:07:36.804Z,97094.66
2019-05-01T00:09:12.195Z,97089.01
2019-05-01T00:10:47.979Z,97092.50
2019-05-01T00:12:23.597Z,97093.83
2019-05-01T00:13:59.270Z,97096.66
2019-05-01T00:15:36.518Z,97090.95
2019-05-01T00:17:11.959Z,97087.40
2019-05-01T00:18:47.451Z,97091.20
2019-05-01T00:20:22.671Z,97086.05
2019-05-01T00:22:08.938Z,97086.00
2019-05-01T00:23:56.788Z,97087.00
2019-05-01T00:25:33.438Z,97090.50
2019-05-01T00:27:13.158Z,97078.40
2019-05-01T00:28:54.520Z,97082.77
2019-05-01T00:30:30.838Z,97081.53
2019-05-01T00:32:06.244Z,97080.95
2019-05-01T00:33:44.219Z,97085.79
2019-05-01T00:35:23.959Z,97079.09
2019-05-01T00:37:01.644Z,97082.13
2019-05-01T00:38:37.309Z,97082.45
2019-05-01T00:40:20.457Z,97081.86
2019-05-01T00:41:55.700Z,97085.60
2019-05-01T00:43:45.343Z,97085.88
2019-05-01T00:45:17.135Z,97084.53
2019-05-01T00:46:52.959Z,97087.82
2019-05-01T00:48:28.529Z,97077.52
2019-05-01T00:50:04.188Z,97092.76
2019-05-01T00:51:39.634Z,97090.73
2019-05-01T00:53:15.047Z,97088.50
2019-05-01T00:54:52.102Z,97098.28
2019-05-01T00:56:35.163Z,97097.94
2019-05-01T00:58:34.018Z,97086.53
2019-05-01T01:00:28.010Z,97090.83
2019-05-01T01:02:12.460Z,97091.83
2019-05-01T01:03:47.675Z,97096.85
2019-05-01T01:05:23.518Z,97096.67
2019-05-01T01:06:58.749Z,97103.20
2019-05-01T01:08:35.703Z,97093.23
2019-05-01T01:10:10.975Z,97095.06
2019-05-01T01:11:46.570Z,97096.50
2019-05-01T01:13:21.938Z,97093.70
2019-05-01T01:14:57.064Z,97097.41
2019-05-01T01:16:32.307Z,97090.04
2019-05-01T01:18:10.301Z,97091.95
2019-05-01T01:19:45.444Z,97094.26
2019-05-01T01:21:21.275Z,97093.27
2019-05-01T01:22:59.352Z,97093.81
2019-05-01T01:24:37.255Z,97090.55
2019-05-01T01:26:13.992Z,97092.03
2019-05-01T01:27:49.134Z,97096.14
2019-05-01T01:29:24.625Z,97088.03
2019-05-01T01:31:00.237Z,97090.37
2019-05-01T01:32:38.211Z,97096.97
2019-05-01T01:34:16.291Z,97088.00
2019-05-01T01:35:51.864Z,97094.45
2019-05-01T01:37:27.200Z,97097.34
2019-05-01T01:39:02.334Z,97096.17
2019-05-01T01:40:37.464Z,97103.27
2019-05-01T01:42:13.964Z,97108.59
2019-05-01T01:44:03.739Z,97108.03
2019-05-01T01:45:44.576Z,97103.75
2019-05-01T01:47:19.759Z,97111.52
2019-05-01T01:48:55.172Z,97106.50
2019-05-01T01:50:30.241Z,97113.48
2019-05-01T01:52:05.657Z,97105.57
2019-05-01T01:53:40.709Z,97105.87
2019-05-01T01:57:49.574Z,97106.45
2019-05-01T01:59:26.099Z,97110.04
2019-05-01T02:01:26.966Z,97115.36
2019-05-01T02:03:04.199Z,97108.92
2019-05-01T02:04:53.551Z,97107.57
2019-05-01T02:06:28.578Z,97104.78
2019-05-01T02:08:03.853Z,97115.78
2019-05-01T02:09:39.188Z,97114.92
2019-05-01T02:11:14.238Z,97117.37
2019-05-01T02:12:49.569Z,97110.29
2019-05-01T02:14:24.704Z,97105.13
2019-05-01T02:15:59.940Z,97107.98
2019-05-01T02:17:35.378Z,97110.29
2019-05-01T02:19:10.407Z,97115.13
2019-05-01T02:20:45.858Z,97111.44
2019-05-01T02:22:21.897Z,97118.02
2019-05-01T02:23:57.855Z,97114.73
2019-05-01T02:25:35.153Z,97113.98
2019-05-01T02:27:17.010Z,97114.82
2019-05-01T02:29:06.572Z,97113.84
2019-05-01T02:30:44.942Z,97113.07
2019-05-01T02:32:20.469Z,97118.61
2019-05-01T02:33:55.465Z,97111.72
2019-05-01T02:35:30.618Z,97112.91
2019-05-01T02:37:09.522Z,97114.63
2019-05-01T02:38:44.576Z,97118.51
2019-05-01T02:40:53.790Z,97111.05
2019-05-01T02:42:30.401Z,97118.63
2019-05-01T02:44:23.288Z,97115.39
2019-05-01T02:45:59.271Z,97114.92
2019-05-01T02:47:36.150Z,97120.33
2019-05-01T02:49:14.840Z,97119.98
2019-05-01T02:50:50.524Z,97130.41
2019-05-01T02:52:27.535Z,97130.03
2019-05-01T02:54:02.649Z,97128.16
2019-05-01T02:55:43.808Z,97131.41
2019-05-01T02:57:20.013Z,97131.68
2019-05-01T02:58:55.565Z,97133.11
2019-05-01T03:00:30.822Z,97139.76
2019-05-01T03:02:06.321Z,97139.91
2019-05-01T03:03:41.542Z,97142.47
2019-05-01T03:05:17.167Z,97143.78
2019-05-01T03:06:52.393Z,97149.97
2019-05-01T03:08:27.911Z,97156.21
2019-05-01T03:10:03.905Z,97156.23
2019-05-01T03:11:40.555Z,97159.88
2019-05-01T03:13:15.670Z,97163.13
2019-05-01T03:14:52.474Z,97164.47
2019-05-01T03:16:27.579Z,97166.58
2019-05-01T03:18:21.950Z,97164.52
2019-05-01T03:20:02.756Z,97169.23
2019-05-01T03:22:08.709Z,97166.17
2019-05-01T03:23:51.248Z,97169.11
2019-05-01T03:25:26.713Z,97172.15
2019-05-01T03:27:01.756Z,97181.19
2019-05-01T03:28:36.911Z,97173.45
2019-05-01T03:30:13.760Z,97179.48
2019-05-01T03:32:14.168Z,97178.33
2019-05-01T03:33:26.400Z,97184.33
2019-05-01T03:35:01.530Z,97187.17
2019-05-01T03:36:36.689Z,97184.91
2019-05-01T03:38:12.041Z,97187.06
2019-05-01T03:39:47.486Z,97184.01
2019-05-01T03:41:22.613Z,97188.06
2019-05-01T03:42:57.890Z,97191.74
2019-05-01T03:44:34.643Z,97187.87
2019-05-01T03:46:10.452Z,97188.20
2019-05-01T03:47:46.239Z,97195.50
2019-05-01T03:49:21.724Z,97184.71
2019-05-01T03:50:56.785Z,97191.31
2019-05-01T03:52:34.485Z,97184.54
2019-05-01T03:54:09.557Z,97190.67
2019-05-01T03:55:44.892Z,97191.62
2019-05-01T03:57:23.650Z,97194.91
2019-05-01T03:58:59.717Z,97192.07
2019-05-01T04:00:46.711Z,97192.44
2019-05-01T04:02:38.562Z,97193.55
2019-05-01T04:04:16.971Z,97194.27
2019-05-01T04:05:52.346Z,97200.31
2019-05-01T04:07:27.416Z,97198.80
2019-05-01T04:09:02.572Z,97199.47
2019-05-01T04:10:42.223Z,97195.81
2019-05-01T04:12:16.241Z,97182.09
2019-05-01T04:13:54.672Z,97184.97
2019-05-01T04:15:30.133Z,97183.58
2019-05-01T04:17:20.543Z,97187.67
2019-05-01T04:18:55.921Z,97189.05
2019-05-01T04:20:31.293Z,97188.85
2019-05-01T04:22:11.518Z,97186.67
2019-05-01T04:23:48.827Z,97181.57
2019-05-01T04:25:29.987Z,97182.47
2019-05-01T04:27:07.197Z,97182.32
2019-05-01T04:29:13.128Z,97182.53
2019-05-01T04:31:16.837Z,97187.95
2019-05-01T04:32:53.759Z,97186.02
2019-05-01T04:34:35.573Z,97189.36
2019-05-01T04:36:17.015Z,97194.92
2019-05-01T04:37:53.090Z,97191.23
2019-05-01T04:39:31.517Z,97199.69
2019-05-01T04:41:07.049Z,97204.67
2019-05-01T04:42:47.637Z,97215.27
2019-05-01T04:44:22.888Z,97211.20
2019-05-01T04:45:58.162Z,97219.25
2019-05-01T04:47:33.385Z,97215.70
2019-05-01T04:49:10.310Z,97214.30
2019-05-01T04:50:48.196Z,97218.56
2019-05-01T04:52:23.921Z,97221.65
2019-05-01T04:53:59.249Z,97221.41
2019-05-01T04:55:34.353Z,97223.50
2019-05-01T04:57:10.210Z,97224.51
2019-05-01T04:58:48.283Z,97226.14
2019-05-01T05:00:23.504Z,97228.52
2019-05-01T05:02:03.066Z,97231.63
2019-05-01T05:03:38.861Z,97232.19
2019-05-01T05:05:14.231Z,97227.33
2019-05-01T05:06:49.338Z,97233.59
2019-05-01T05:08:24.425Z,97242.55
2019-05-01T05:09:59.939Z,97242.63
2019-05-01T05:11:48.860Z,97243.64
2019-05-01T05:13:31.380Z,97241.23
2019-05-01T05:15:38.238Z,97236.20
2019-05-01T05:17:18.729Z,97238.11
2019-05-01T05:18:53.881Z,97237.73
2019-05-01T05:20:28.912Z,97240.15
2019-05-01T05:22:04.537Z,97239.34
2019-05-01T05:23:40.106Z,97233.73
2019-05-01T05:25:15.536Z,97226.80
2019-05-01T05:27:00.560Z,97224.22
2019-05-01T05:28:44.361Z,97222.89
2019-05-01T05:30:26.743Z,97218.73
2019-05-01T05:32:04.084Z,97212.09
2019-05-01T05:33:39.597Z,97216.23
2019-05-01T05:35:15.234Z,97212.60
2019-05-01T05:36:54.690Z,97208.44
2019-05-01T05:38:54.667Z,97203.77
2019-05-01T05:40:31.145Z,97198.51
2019-05-01T05:42:09.743Z,97197.84
2019-05-01T05:43:45.117Z,97192.20
2019-05-01T05:45:21.677Z,97192.56
2019-05-01T05:46:58.225Z,97181.30
2019-05-01T05:48:33.493Z,97182.61
2019-05-01T05:50:10.657Z,97174.34
2019-05-01T05:51:52.031Z,97164.28
2019-05-01T05:53:29.318Z,97156.63
2019-05-01T05:55:22.061Z,97142.42
2019-05-01T05:57:02.215Z,97134.36
2019-05-01T05:58:59.611Z,97124.19
2019-05-01T06:00:48.803Z,97111.20
2019-05-01T06:02:39.140Z,97093.15
2019-05-01T06:04:48.214Z,97082.84
2019-05-01T06:06:39.638Z,97072.66
2019-05-01T06:08:18.262Z,97055.60
2019-05-01T06:10:18.434Z,97039.66
2019-05-01T06:12:14.310Z,97025.33
2019-05-01T06:14:06.857Z,97014.70
2019-05-01T06:16:03.911Z,96996.98
2019-05-01T06:17:47.225Z,96982.84
2019-05-01T06:19:28.761Z,96966.94
2019-05-01T06:21:16.405Z,96966.67
2019-05-01T06:23:15.636Z,96954.65
2019-05-01T06:24:54.487Z,96955.72
2019-05-01T06:26:37.407Z,96955.79
2019-05-01T06:28:09.972Z,96951.22
2019-05-01T06:29:45.194Z,96953.97
2019-05-01T06:31:23.020Z,96944.39
2019-05-01T06:33:04.118Z,96939.08
2019-05-01T06:34:41.198Z,96942.44
2019-05-01T06:36:19.973Z,96944.56
2019-05-01T06:38:21.035Z,96944.56
2019-05-01T06:39:53.061Z,96947.31
2019-05-01T06:41:33.840Z,96948.89
2019-05-01T06:43:12.171Z,96943.24
2019-05-01T06:44:52.525Z,96945.56
2019-05-01T06:46:42.750Z,96943.94
2019-05-01T06:48:20.378Z,96949.41
2019-05-01T06:50:18.256Z,96943.86
2019-05-01T06:51:56.010Z,96942.42
2019-05-01T06:53:36.080Z,96938.73
2019-05-01T06:55:10.881Z,96939.83
2019-05-01T06:56:54.422Z,96940.47
2019-05-01T06:58:29.609Z,96939.23
2019-05-01T07:00:09.564Z,96939.00
2019-05-01T07:01:47.305Z,96937.80
2019-05-01T07:03:22.861Z,96939.95
2019-05-01T07:05:01.314Z,96934.16
2019-05-01T07:06:36.696Z,96927.85
2019-05-01T07:08:24.034Z,96929.58
2019-05-01T07:09:51.013Z,96927.77
2019-05-01T07:11:26.214Z,96931.80
2019-05-01T07:13:04.851Z,96929.42
2019-05-01T07:14:38.798Z,96929.95
2019-05-01T07:16:13.972Z,96929.80
2019-05-01T07:17:49.074Z,96921.28
2019-05-01T07:19:43.289Z,96925.67
2019-05-01T07:21:18.350Z,96923.53
2019-05-01T07:22:54.705Z,96921.83
2019-05-01T07:24:31.379Z,96917.27
2019-05-01T07:26:13.635Z,96918.05
2019-05-01T07:27:47.523Z,96912.84
2019-05-01T07:29:24.440Z,96913.09
2019-05-01T07:31:09.113Z,96911.72
2019-05-01T07:32:44.500Z,96912.27
2019-05-01T07:34:26.325Z,96913.62
2019-05-01T07:36:02.489Z,96913.68
2019-05-01T07:37:38.851Z,96914.86
2019-05-01T07:39:14.783Z,96912.78
2019-05-01T07:40:52.605Z,96907.05
2019-05-01T07:42:36.103Z,96908.69
2019-05-01T07:44:43.595Z,96911.61
2019-05-01T07:46:56.194Z,96914.16
2019-05-01T07:48:41.712Z,96916.72
2019-05-01T07:50:15.951Z,96920.09
2019-05-01T07:51:52.297Z,96916.05
2019-05-01T07:53:30.934Z,96910.31
2019-05-01T07:55:06.801Z,96911.20
2019-05-01T07:56:44.938Z,96916.17
2019-05-01T07:58:20.562Z,96914.03
2019-05-01T08:00:02.696Z,96912.75
2019-05-01T08:01:54.514Z,96909.38
2019-05-01T08:03:29.123Z,96910.58
2019-05-01T08:05:04.913Z,96913.67
2019-05-01T08:06:41.664Z,96917.86
2019-05-01T08:08:17.103Z,96919.67
2019-05-01T08:09:59.846Z,96915.17
2019-05-01T08:11:39.118Z,96912.80
2019-05-01T08:13:12.710Z,96910.38
2019-05-01T08:14:52.442Z,96912.82
2019-05-01T08:16:25.668Z,96912.80
2019-05-01T08:18:14.988Z,96903.17
2019-05-01T08:20:00.327Z,96907.70
2019-05-01T08:21:56.918Z,96904.08
2019-05-01T08:23:30.966Z,96908.16
2019-05-01T08:25:15.081Z,96903.48
2019-05-01T08:26:49.437Z,96906.66
2019-05-01T08:28:31.976Z,96907.21
2019-05-01T08:30:36.856Z,96907.53
2019-05-01T08:34:13.629Z,96909.88
2019-05-01T08:35:48.909Z,96908.23
2019-05-01T08:37:29.343Z,96907.88
2019-05-01T08:39:13.803Z,96905.53
2019-05-01T08:40:50.658Z,96910.23
2019-05-01T08:42:29.498Z,96913.52
2019-05-01T08:44:04.722Z,96915.77
2019-05-01T08:46:01.698Z,96913.66
2019-05-01T08:47:46.002Z,96916.41
2019-05-01T08:49:29.042Z,96916.31
2019-05-01T08:51:04.264Z,96915.78
2019-05-01T08:52:42.617Z,96918.32
2019-05-01T08:54:18.334Z,96914.17
2019-05-01T08:55:56.952Z,96912.09
2019-05-01T08:57:34.140Z,96908.20
2019-05-01T08:59:09.301Z,96904.97
2019-05-01T09:00:48.680Z,96907.97
2019-05-01T09:02:28.406Z,96910.97
2019-05-01T09:04:12.810Z,96903.91
2019-05-01T09:05:43.012Z,96904.88
2019-05-01T09:07:23.997Z,96915.22
2019-05-01T09:09:02.964Z,96915.16
2019-05-01T09:10:38.458Z,96907.31
2019-05-01T09:12:13.831Z,96910.41
2019-05-01T09:13:48.993Z,96916.23
2019-05-01T09:15:28.966Z,96911.80
2019-05-01T09:17:04.275Z,96910.46
2019-05-01T09:18:39.925Z,96909.80
2019-05-01T09:20:18.896Z,96915.93
2019-05-01T09:21:58.232Z,96917.37
2019-05-01T09:23:38.893Z,96907.23
2019-05-01T09:25:18.510Z,96906.44
2019-05-01T09:27:14.745Z,96899.53
2019-05-01T09:29:00.226Z,96899.59
2019-05-01T09:30:42.022Z,96894.88
2019-05-01T09:32:18.829Z,96903.48
2019-05-01T09:33:59.300Z,96895.32
2019-05-01T09:35:40.283Z,96894.22
2019-05-01T09:37:17.007Z,96904.14
2019-05-01T09:38:56.827Z,96900.34
2019-05-01T09:40:35.265Z,96891.48
2019-05-01T09:42:11.020Z,96898.47
2019-05-01T09:43:46.292Z,96892.97
2019-05-01T09:45:22.136Z,96898.38
2019-05-01T09:46:58.125Z,96900.30
2019-05-01T09:48:38.246Z,96897.34
2019-05-01T09:50:13.694Z,96893.92
2019-05-01T09:52:06.471Z,96892.48
2019-05-01T09:54:05.623Z,96889.09
2019-05-01T09:55:54.176Z,96886.50
2019-05-01T09:57:29.698Z,96885.80
2019-05-01T09:59:12.481Z,96885.18
2019-05-01T10:00:48.908Z,96886.84
2019-05-01T10:02:26.119Z,96879.12
2019-05-01T10:04:05.701Z,96881.45
2019-05-01T10:05:42.909Z,96882.78
2019-05-01T10:07:24.030Z,96876.34
2019-05-01T10:09:04.648Z,96873.75
2019-05-01T10:10:45.981Z,96882.20
2019-05-01T10:12:26.043Z,96867.72
2019-05-01T10:14:05.407Z,96870.94
2019-05-01T10:15:46.795Z,96858.59
2019-05-01T10:17:27.321Z,96861.88
2019-05-01T10:19:05.679Z,96862.10
2019-05-01T10:20:43.184Z,96865.57
2019-05-01T10:22:22.303Z,96853.52
2019-05-01T10:23:57.520Z,96857.80
2019-05-01T10:25:42.948Z,96854.53
2019-05-01T10:27:30.909Z,96858.17
2019-05-01T10:29:25.924Z,96853.83
2019-05-01T10:31:11.989Z,96853.77
2019-05-01T10:32:57.766Z,96846.89
2019-05-01T10:34:43.016Z,96845.07
2019-05-01T10:36:34.479Z,96846.47
2019-05-01T10:38:14.982Z,96833.11
2019-05-01T10:39:58.245Z,96832.27
2019-05-01T10:41:40.938Z,96834.72
2019-05-01T10:43:16.599Z,96837.02
2019-05-01T10:44:57.401Z,96826.09
2019-05-01T10:46:33.979Z,96838.15
2019-05-01T10:48:10.193Z,96860.19
2019-05-01T10:49:46.028Z,96860.19
2019-05-01T10:51:24.304Z,96856.54
2019-05-01T10:53:03.207Z,96861.19
2019-05-01T10:54:46.501Z,96854.66
2019-05-01T10:56:33.201Z,96855.28
2019-05-01T10:58:25.807Z,96857.10
2019-05-01T11:00:06.239Z,96856.62
2019-05-01T11:01:55.229Z,96852.48
2019-05-01T11:03:32.427Z,96853.02
2019-05-01T11:07:10.409Z,96853.14
2019-05-01T11:08:43.231Z,96854.41
2019-05-01T11:10:26.295Z,96849.98
2019-05-01T11:12:02.360Z,96856.55
2019-05-01T11:13:37.528Z,96858.76
2019-05-01T11:15:18.085Z,96852.84
2019-05-01T11:16:53.530Z,96848.27
2019-05-01T11:18:37.250Z,96845.05
2019-05-01T11:20:15.800Z,96845.36
2019-05-01T11:21:52.024Z,96852.30
2019-05-01T11:23:30.533Z,96846.30
2019-05-01T11:25:06.239Z,96838.14
2019-05-01T11:26:44.394Z,96830.26
2019-05-01T11:28:20.201Z,96837.45
2019-05-01T11:29:55.357Z,96838.02
2019-05-01T11:31:52.482Z,96832.09
2019-05-01T11:33:56.696Z,96836.60
2019-05-01T11:35:51.372Z,96826.12
2019-05-01T11:37:45.446Z,96823.88
2019-05-01T11:39:36.010Z,96826.32
2019-05-01T11:41:14.959Z,96822.94
2019-05-01T11:42:53.261Z,96831.92
2019-05-01T11:44:29.980Z,96819.75
2019-05-01T11:46:16.674Z,96824.98
2019-05-01T11:47:51.728Z,96822.58
2019-05-01T11:49:28.113Z,96824.01
2019-05-01T11:51:08.563Z,96830.15
2019-05-01T11:52:45.308Z,96826.67
2019-05-01T11:54:22.265Z,96830.30
2019-05-01T11:56:06.633Z,96821.78
2019-05-01T11:57:45.032Z,96818.45
2019-05-01T11:59:29.489Z,96817.02
2019-05-01T12:01:14.762Z,96818.98
2019-05-01T12:02:51.201Z,96811.90
2019-05-01T12:04:29.735Z,96815.53
2019-05-01T12:06:05.399Z,96808.85
2019-05-01T12:08:05.659Z,96807.86
2019-05-01T12:09:41.413Z,96809.70
2019-05-01T12:11:19.646Z,96808.61
2019-05-01T12:12:55.029Z,96810.02
2019-05-01T12:14:30.602Z,96807.23
2019-05-01T12:16:16.219Z,96799.52
2019-05-01T12:17:56.201Z,96816.98
2019-05-01T12:19:31.720Z,96804.84
2019-05-01T12:21:08.194Z,96809.22
2019-05-01T12:22:43.383Z,96808.70
2019-05-01T12:24:22.414Z,96814.11
2019-05-01T12:26:18.644Z,96815.05
2019-05-01T12:27:53.971Z,96812.68
2019-05-01T12:29:31.482Z,96810.91
2019-05-01T12:31:14.675Z,96806.39
2019-05-01T12:32:50.178Z,96808.86
2019-05-01T12:34:36.562Z,96795.48
2019-05-01T12:36:11.745Z,96796.17
2019-05-01T12:37:48.015Z,96787.23
2019-05-01T12:39:24.934Z,96786.23
2019-05-01T12:41:20.164Z,96791.36
2019-05-01T12:43:01.449Z,96803.05
2019-05-01T12:44:52.081Z,96787.88
2019-05-01T12:46:41.244Z,96794.74
2019-05-01T12:48:17.384Z,96793.37
2019-05-01T12:50:00.955Z,96796.48
2019-05-01T12:51:42.995Z,96788.78
2019-05-01T12:53:47.315Z,96777.05
2019-05-01T12:55:53.616Z,96772.15
2019-05-01T12:57:35.271Z,96775.53
2019-05-01T13:00:08.793Z,96792.76
2019-05-01T13:01:42.736Z,96793.73
2019-05-01T13:03:24.062Z,96786.27
2019-05-01T13:05:29.320Z,96775.92
2019-05-01T13:07:38.057Z,96774.75
2019-05-01T13:09:10.852Z,96777.17
2019-05-01T13:10:45.847Z,96766.68
2019-05-01T13:12:23.981Z,96774.76
2019-05-01T13:13:59.603Z,96772.13
2019-05-01T13:15:36.536Z,96773.01
2019-05-01T13:17:11.573Z,96763.98
2019-05-01T13:18:48.922Z,96764.59
2019-05-01T13:20:24.834Z,96760.68
2019-05-01T13:22:05.303Z,96761.58
2019-05-01T13:23:42.932Z,96760.82
2019-05-01T13:25:21.002Z,96761.22
2019-05-01T13:27:10.857Z,96765.52
2019-05-01T13:28:59.636Z,96765.00
2019-05-01T13:30:46.193Z,96753.37
2019-05-01T13:32:51.191Z,96757.72
2019-05-01T13:34:28.375Z,96756.17
2019-05-01T13:36:05.407Z,96750.14
2019-05-01T13:37:42.070Z,96744.88
2019-05-01T13:39:17.250Z,96745.02
2019-05-01T13:40:55.984Z,96738.22
2019-05-01T13:42:33.080Z,96739.00
2019-05-01T13:44:10.347Z,96728.79
2019-05-01T13:45:55.181Z,96735.22
2019-05-01T13:47:35.294Z,96738.09
2019-05-01T13:49:12.192Z,96731.80
2019-05-01T13:50:48.758Z,96738.14
2019-05-01T13:52:24.608Z,96737.42
2019-05-01T13:53:59.725Z,96727.36
2019-05-01T13:55:38.243Z,96725.91
2019-05-01T13:57:14.272Z,96718.48
2019-05-01T13:58:52.681Z,96720.58
2019-05-01T14:00:28.379Z,96717.18
2019-05-01T14:02:03.421Z,96719.94
2019-05-01T14:03:41.577Z,96720.17
2019-05-01T14:05:16.980Z,96714.94
2019-05-01T14:06:57.450Z,96709.78
2019-05-01T14:08:38.098Z,96710.69
2019-05-01T14:10:13.283Z,96706.52
2019-05-01T14:11:51.435Z,96702.56
2019-05-01T14:13:31.219Z,96697.83
2019-05-01T14:15:14.634Z,96693.66
2019-05-01T14:16:50.947Z,96693.02
2019-05-01T14:18:35.163Z,96693.08
2019-05-01T14:20:28.394Z,96690.71
2019-05-01T14:22:37.333Z,96688.83
2019-05-01T14:24:31.427Z,96687.84
2019-05-01T14:26:10.371Z,96687.27
2019-05-01T14:27:56.172Z,96692.34
2019-05-01T14:29:31.600Z,96686.41
2019-05-01T14:31:12.616Z,96682.30
2019-05-01T14:33:26.416Z,96682.18
2019-05-01T14:35:18.099Z,96682.64
2019-05-01T14:37:03.329Z,96682.29
2019-05-01T14:38:38.657Z,96690.50
2019-05-01T14:40:16.813Z,96681.93
2019-05-01T14:41:59.272Z,96683.06
2019-05-01T14:43:40.673Z,96682.66
2019-05-01T14:45:17.679Z,96682.63
2019-05-01T14:46:52.939Z,96679.77
2019-05-01T14:48:31.916Z,96676.22
2019-05-01T14:50:08.577Z,96668.02
2019-05-01T14:51:44.438Z,96675.12
2019-05-01T14:53:21.778Z,96676.63
2019-05-01T14:55:00.390Z,96685.09
2019-05-01T14:56:38.306Z,96679.28
2019-05-01T14:58:19.405Z,96681.14
2019-05-01T15:00:00.815Z,96679.26
2019-05-01T15:01:40.983Z,96678.79
2019-05-01T15:03:16.351Z,96673.97
2019-05-01T15:04:58.647Z,96676.47
2019-05-01T15:06:36.249Z,96674.09
2019-05-01T15:08:18.483Z,96664.80
2019-05-01T15:09:58.595Z,96664.44
2019-05-01T15:11:34.333Z,96665.06
2019-05-01T15:18:18.283Z,96664.67
2019-05-01T15:20:02.800Z,96669.45
2019-05-01T15:21:39.734Z,96658.36
2019-05-01T15:23:18.928Z,96664.43
2019-05-01T15:24:55.978Z,96665.28
2019-05-01T15:26:32.797Z,96664.03
2019-05-01T15:28:09.232Z,96667.56
2019-05-01T15:29:49.997Z,96665.89
2019-05-01T15:31:27.949Z,96666.30
2019-05-01T15:33:06.939Z,96657.97
2019-05-01T15:34:50.184Z,96656.98
2019-05-01T15:36:27.188Z,96673.25
2019-05-01T15:38:02.521Z,96669.59
2019-05-01T15:39:43.402Z,96668.55
2019-05-01T15:41:40.253Z,96659.16
2019-05-01T15:43:42.055Z,96663.22
2019-05-01T15:45:17.911Z,96660.64
2019-05-01T15:46:55.455Z,96663.96
2019-05-01T15:48:31.308Z,96664.54
2019-05-01T15:50:07.036Z,96666.12
2019-05-01T15:51:44.215Z,96660.91
2019-05-01T15:53:22.837Z,96666.21
2019-05-01T15:54:58.564Z,96660.94
2019-05-01T15:56:35.402Z,96662.42
2019-05-01T15:58:13.597Z,96660.42
2019-05-01T15:59:52.314Z,96662.19
2019-05-01T16:01:40.556Z,96660.63
2019-05-01T16:03:16.582Z,96659.86
2019-05-01T16:04:59.464Z,96665.19
2019-05-01T16:06:38.315Z,96668.71
2019-05-01T16:08:15.068Z,96660.97
2019-05-01T16:09:58.438Z,96662.01
2019-05-01T16:12:01.840Z,96662.74
2019-05-01T16:13:37.012Z,96658.36
2019-05-01T16:15:22.213Z,96652.88
2019-05-01T16:16:57.653Z,96651.95
2019-05-01T16:18:32.988Z,96653.12
2019-05-01T16:20:08.590Z,96647.42
2019-05-01T16:21:46.379Z,96651.19
2019-05-01T16:23:22.616Z,96649.88
2019-05-01T16:24:57.804Z,96656.47
2019-05-01T16:26:34.920Z,96647.84
2019-05-01T16:28:10.548Z,96651.22
2019-05-01T16:29:51.099Z,96646.53
2019-05-01T16:31:30.732Z,96638.14
2019-05-01T16:33:11.501Z,96644.22
2019-05-01T16:34:47.337Z,96646.22
2019-05-01T16:36:22.429Z,96644.36
2019-05-01T16:37:59.805Z,96644.02
2019-05-01T16:39:54.153Z,96646.08
2019-05-01T16:41:31.239Z,96643.49
2019-05-01T16:43:11.450Z,96645.70
2019-05-01T16:44:46.699Z,96638.08
2019-05-01T16:46:21.841Z,96636.91
2019-05-01T16:47:57.386Z,96635.25
2019-05-01T16:49:43.380Z,96641.39
2019-05-01T16:51:17.029Z,96637.69
2019-05-01T16:52:52.556Z,96630.66
2019-05-01T16:54:28.621Z,96621.28
2019-05-01T16:56:10.985Z,96628.80
2019-05-01T16:57:49.291Z,96625.21
2019-05-01T16:59:24.673Z,96619.94
2019-05-01T17:01:13.407Z,96626.91
2019-05-01T17:03:20.652Z,96623.52
2019-05-01T17:05:13.510Z,96623.52
2019-05-01T17:07:12.659Z,96617.52
2019-05-01T17:08:59.978Z,96620.73
2019-05-01T17:10:40.638Z,96616.96
2019-05-01T17:12:52.012Z,96618.69
2019-05-01T17:16:21.277Z,96608.42
2019-05-01T17:17:56.763Z,96609.87
2019-05-01T17:19:34.815Z,96600.42
2019-05-01T17:21:12.513Z,96611.55
2019-05-01T17:22:52.330Z,96614.04
2019-05-01T17:24:30.251Z,96609.47
2019-05-01T17:26:07.672Z,96604.28
2019-05-01T17:27:51.350Z,96606.02
2019-05-01T17:29:40.901Z,96599.13
2019-05-01T17:31:04.687Z,96604.48
2019-05-01T17:32:47.217Z,96604.22
2019-05-01T17:34:30.417Z,96604.58
2019-05-01T17:36:06.497Z,96603.69
2019-05-01T17:37:42.053Z,96603.89
2019-05-01T17:39:23.036Z,96605.42
2019-05-01T17:41:02.694Z,96602.95
2019-05-01T17:42:39.453Z,96599.77
2019-05-01T17:44:25.203Z,96605.76
2019-05-01T17:46:05.812Z,96599.15
2019-05-01T17:47:45.906Z,96599.68
2019-05-01T17:49:25.345Z,96608.66
2019-05-01T17:51:01.934Z,96606.00
2019-05-01T17:52:43.292Z,96608.11
2019-05-01T17:54:21.536Z,96606.55
2019-05-01T17:56:01.479Z,96608.26
2019-05-01T17:57:36.791Z,96612.12
2019-05-01T17:59:15.028Z,96611.95
2019-05-01T18:01:27.728Z,96610.56
2019-05-01T18:03:14.564Z,96608.44
2019-05-01T18:04:57.403Z,96610.02
2019-05-01T18:06:46.415Z,96603.86
2019-05-01T18:08:26.662Z,96610.39
2019-05-01T18:10:02.880Z,96605.56
2019-05-01T18:11:41.199Z,96601.41
2019-05-01T18:13:17.660Z,96606.34
2019-05-01T18:14:57.008Z,96608.41
2019-05-01T18:16:34.462Z,96611.84
2019-05-01T18:18:10.769Z,96608.67
2019-05-01T18:19:50.077Z,96607.52
2019-05-01T18:21:25.938Z,96608.95
2019-05-01T18:23:23.477Z,96613.45
2019-05-01T18:25:28.185Z,96612.87
2019-05-01T18:27:23.866Z,96610.78
2019-05-01T18:29:17.141Z,96614.49
2019-05-01T18:30:56.517Z,96612.53
2019-05-01T18:32:46.240Z,96621.41
2019-05-01T18:34:18.808Z,96617.46
2019-05-01T18:35:56.619Z,96614.75
2019-05-01T18:37:39.603Z,96616.13
2019-05-01T18:39:22.107Z,96614.61
2019-05-01T18:41:18.116Z,96614.19
2019-05-01T18:42:56.262Z,96609.95
2019-05-01T18:44:33.991Z,96614.52
2019-05-01T18:46:28.479Z,96605.87
2019-05-01T18:48:04.735Z,96611.49
2019-05-01T18:49:43.617Z,96614.71
2019-05-01T18:51:24.311Z,96614.12
2019-05-01T18:53:11.405Z,96615.33
2019-05-01T18:54:47.745Z,96611.97
2019-05-01T18:56:24.293Z,96614.12
2019-05-01T18:58:05.333Z,96613.19
2019-05-01T18:59:41.539Z,96613.48
2019-05-01T19:01:16.818Z,96615.62
2019-05-01T19:02:59.566Z,96611.96
2019-05-01T19:04:41.518Z,96611.06
2019-05-01T19:06:19.806Z,96614.97
2019-05-01T19:07:55.008Z,96616.80
2019-05-01T19:09:39.047Z,96620.88
2019-05-01T19:11:18.748Z,96617.53
2019-05-01T19:12:57.084Z,96616.74
2019-05-01T19:14:38.536Z,96617.20
2019-05-01T19:16:17.565Z,96618.36
2019-05-01T19:18:05.156Z,96614.99
2019-05-01T19:19:41.357Z,96611.47
2019-05-01T19:21:18.637Z,96613.41
2019-05-01T19:22:56.496Z,96616.75
2019-05-01T19:24:32.535Z,96614.88
2019-05-01T19:26:13.928Z,96620.59
2019-05-01T19:27:49.428Z,96618.23
2019-05-01T19:29:26.883Z,96611.64
2019-05-01T19:31:03.314Z,96615.20
2019-05-01T19:32:48.842Z,96614.96
2019-05-01T19:34:40.550Z,96614.44
2019-05-01T19:36:27.390Z,96610.41
2019-05-01T19:38:07.303Z,96611.88
2019-05-01T19:39:49.124Z,96616.81
2019-05-01T19:41:29.366Z,96610.19
2019-05-01T19:43:04.775Z,96610.89
2019-05-01T19:44:43.376Z,96611.94
2019-05-01T19:46:25.926Z,96612.98
2019-05-01T19:48:02.968Z,96610.57
2019-05-01T19:49:40.213Z,96607.19
2019-05-01T19:51:23.604Z,96613.91
2019-05-01T19:53:00.036Z,96619.89
2019-05-01T19:54:35.869Z,96615.70